createdAt,value
2018-12-23T00:00:17.918Z,19.45
2018-12-23T00:01:17.833Z,19.44
2018-12-23T00:02:17.546Z,19.44
2018-12-23T00:03:18.156Z,19.44
2018-12-23T00:04:17.859Z,19.42
2018-12-23T00:05:16.758Z,19.41
2018-12-23T00:06:18.081Z,19.41
2018-12-23T00:07:17.530Z,19.42
2018-12-23T00:08:17.732Z,19.4
2018-12-23T00:09:17.620Z,19.4
2018-12-23T00:10:17.842Z,19.4
2018-12-23T00:11:17.569Z,19.4
2018-12-23T00:12:17.684Z,19.39
2018-12-23T00:13:17.723Z,19.39
2018-12-23T00:14:18.214Z,19.39
2018-12-23T00:15:18.191Z,19.39
2018-12-23T00:16:17.909Z,19.37
2018-12-23T00:17:17.978Z,19.38
2018-12-23T00:18:18.384Z,19.38
2018-12-23T00:19:17.986Z,19.38
2018-12-23T00:20:17.833Z,19.36
2018-12-23T00:21:16.750Z,19.35
2018-12-23T00:22:17.887Z,19.35
2018-12-23T00:23:17.602Z,19.34
2018-12-23T00:24:17.850Z,19.33
2018-12-23T00:25:17.913Z,19.34
2018-12-23T00:26:18.183Z,19.34
2018-12-23T00:27:17.760Z,19.33
2018-12-23T00:28:18.001Z,19.32
2018-12-23T00:29:17.837Z,19.31
2018-12-23T00:30:17.773Z,19.31
2018-12-23T00:31:17.999Z,19.31
2018-12-23T00:32:18.684Z,19.31
2018-12-23T00:33:18.066Z,19.31
2018-12-23T00:34:17.598Z,19.31
2018-12-23T00:35:20.367Z,19.31
2018-12-23T00:36:18.449Z,19.3
2018-12-23T00:37:17.520Z,19.3
2018-12-23T00:38:17.096Z,19.29
2018-12-23T00:39:17.403Z,19.29
2018-12-23T00:40:17.866Z,19.29
2018-12-23T00:41:18.559Z,19.3
2018-12-23T00:42:19.293Z,19.29
2018-12-23T00:43:17.841Z,19.27
2018-12-23T00:44:17.849Z,19.26
2018-12-23T00:45:16.993Z,19.27
2018-12-23T00:46:16.938Z,19.27
2018-12-23T00:47:17.907Z,19.27
2018-12-23T00:48:17.880Z,19.26
2018-12-23T00:49:18.102Z,19.26
2018-12-23T00:50:17.629Z,19.25
2018-12-23T00:51:18.084Z,19.25
2018-12-23T00:52:18.429Z,19.26
2018-12-23T00:53:18.400Z,19.25
2018-12-23T00:54:17.784Z,19.24
2018-12-23T00:55:17.794Z,19.24
2018-12-23T00:56:18.308Z,19.24
2018-12-23T00:57:19.238Z,19.23
2018-12-23T00:58:18.227Z,19.22
2018-12-23T00:59:18.545Z,19.23
2018-12-23T01:00:18.243Z,19.21
2018-12-23T01:01:17.824Z,19.22
2018-12-23T01:02:18.264Z,19.21
2018-12-23T01:03:18.217Z,19.21
2018-12-23T01:04:18.306Z,19.21
2018-12-23T01:05:18.933Z,19.21
2018-12-23T01:06:19.178Z,19.2
2018-12-23T01:07:18.898Z,19.19
2018-12-23T01:08:18.618Z,19.19
2018-12-23T01:09:17.670Z,19.18
2018-12-23T01:10:18.656Z,19.18
2018-12-23T01:11:18.278Z,19.18
2018-12-23T01:12:18.277Z,19.18
2018-12-23T01:13:17.953Z,19.18
2018-12-23T01:14:17.856Z,19.18
2018-12-23T01:15:17.589Z,19.17
2018-12-23T01:16:17.856Z,19.17
2018-12-23T01:17:17.838Z,19.17
2018-12-23T01:18:17.264Z,19.17
2018-12-23T01:19:17.164Z,19.16
2018-12-23T01:20:18.294Z,19.15
2018-12-23T01:21:17.638Z,19.16
2018-12-23T01:22:18.014Z,19.16
2018-12-23T01:23:18.640Z,19.15
2018-12-23T01:24:17.840Z,19.14
2018-12-23T01:25:18.418Z,19.15
2018-12-23T01:26:17.943Z,19.13
2018-12-23T01:27:17.999Z,19.13
2018-12-23T01:28:18.598Z,19.14
2018-12-23T01:29:17.717Z,19.13
2018-12-23T01:30:18.125Z,19.15
2018-12-23T01:31:17.289Z,19.13
2018-12-23T01:32:18.239Z,19.11
2018-12-23T01:33:19.151Z,19.12
2018-12-23T01:34:18.439Z,19.11
2018-12-23T01:35:17.655Z,19.11
2018-12-23T01:36:17.885Z,19.11
2018-12-23T01:37:17.885Z,19.1
2018-12-23T01:38:18.112Z,19.09
2018-12-23T01:39:17.863Z,19.09
2018-12-23T01:40:16.887Z,19.08
2018-12-23T01:41:18.139Z,19.08
2018-12-23T01:42:17.895Z,19.08
2018-12-23T01:43:18.111Z,19.08
2018-12-23T01:44:17.593Z,19.08
2018-12-23T01:45:18.409Z,19.08
2018-12-23T01:46:17.823Z,19.07
2018-12-23T01:47:17.801Z,19.07
2018-12-23T01:48:17.560Z,19.06
2018-12-23T01:49:17.790Z,19.07
2018-12-23T01:50:17.938Z,19.07
2018-12-23T01:51:18.307Z,19.07
2018-12-23T01:52:18.284Z,19.06
2018-12-23T01:53:18.212Z,19.06
2018-12-23T01:54:17.673Z,19.06
2018-12-23T01:55:17.838Z,19.05
2018-12-23T01:56:17.668Z,19.04
2018-12-23T01:57:17.676Z,19.03
2018-12-23T01:58:17.895Z,19.04
2018-12-23T01:59:17.837Z,19.03
2018-12-23T02:00:17.559Z,19.03
2018-12-23T02:01:17.608Z,19.03
2018-12-23T02:02:18.761Z,19.03
2018-12-23T02:03:18.060Z,19.01
2018-12-23T02:04:17.822Z,19.01
2018-12-23T02:05:17.553Z,19.02
2018-12-23T02:06:18.254Z,19.02
2018-12-23T02:07:17.745Z,19.01
2018-12-23T02:08:17.238Z,19.01
2018-12-23T02:09:18.480Z,19
2018-12-23T02:10:18.821Z,19
2018-12-23T02:11:18.444Z,19
2018-12-23T02:12:17.834Z,19
2018-12-23T02:13:17.969Z,19
2018-12-23T02:14:17.941Z,18.99
2018-12-23T02:15:17.117Z,18.99
2018-12-23T02:16:18.383Z,18.99
2018-12-23T02:17:17.824Z,18.98
2018-12-23T02:18:18.639Z,18.99
2018-12-23T02:19:16.771Z,18.98
2018-12-23T02:20:17.834Z,18.98
2018-12-23T02:21:18.049Z,18.98
2018-12-23T02:22:17.224Z,18.97
2018-12-23T02:23:18.811Z,18.97
2018-12-23T02:24:18.709Z,18.96
2018-12-23T02:25:17.677Z,18.96
2018-12-23T02:26:18.459Z,18.96
2018-12-23T02:27:17.665Z,18.95
2018-12-23T02:28:17.537Z,18.96
2018-12-23T02:29:17.570Z,18.95
2018-12-23T02:30:17.500Z,18.95
2018-12-23T02:31:18.476Z,18.95
2018-12-23T02:32:17.755Z,18.95
2018-12-23T02:33:18.256Z,18.94
2018-12-23T02:34:17.910Z,18.94
2018-12-23T02:35:18.175Z,18.94
2018-12-23T02:36:17.675Z,18.93
2018-12-23T02:37:18.110Z,18.95
2018-12-23T02:38:17.944Z,18.94
2018-12-23T02:39:16.896Z,18.95
2018-12-23T02:40:18.012Z,18.93
2018-12-23T02:41:17.898Z,18.93
2018-12-23T02:42:17.875Z,18.94
2018-12-23T02:43:16.782Z,18.93
2018-12-23T02:44:17.665Z,18.93
2018-12-23T02:45:17.912Z,18.93
2018-12-23T02:46:17.625Z,18.92
2018-12-23T02:47:18.059Z,18.92
2018-12-23T02:48:18.604Z,18.91
2018-12-23T02:49:17.546Z,18.91
2018-12-23T02:50:18.083Z,18.91
2018-12-23T02:51:17.837Z,18.9
2018-12-23T02:52:16.917Z,18.91
2018-12-23T02:53:17.844Z,18.9
2018-12-23T02:54:18.108Z,18.9
2018-12-23T02:55:17.605Z,18.89
2018-12-23T02:56:18.069Z,18.9
2018-12-23T02:57:17.777Z,18.88
2018-12-23T02:58:17.535Z,18.89
2018-12-23T02:59:17.761Z,18.89
2018-12-23T03:00:17.143Z,18.88
2018-12-23T03:01:17.819Z,18.88
2018-12-23T03:02:17.972Z,18.88
2018-12-23T03:03:16.907Z,18.88
2018-12-23T03:04:18.434Z,18.89
2018-12-23T03:05:17.472Z,18.87
2018-12-23T03:06:17.792Z,18.88
2018-12-23T03:07:17.949Z,18.87
2018-12-23T03:08:17.620Z,18.86
2018-12-23T03:09:17.834Z,18.86
2018-12-23T03:10:18.171Z,18.85
2018-12-23T03:11:17.973Z,18.86
2018-12-23T03:12:18.168Z,18.86
2018-12-23T03:13:17.840Z,18.85
2018-12-23T03:14:18.125Z,18.85
2018-12-23T03:15:17.339Z,18.84
2018-12-23T03:16:17.960Z,18.85
2018-12-23T03:17:17.953Z,18.84
2018-12-23T03:18:17.585Z,18.84
2018-12-23T03:19:17.871Z,18.83
2018-12-23T03:20:18.914Z,18.83
2018-12-23T03:21:17.846Z,18.83
2018-12-23T03:22:17.904Z,18.84
2018-12-23T03:23:17.791Z,18.83
2018-12-23T03:24:16.754Z,18.82
2018-12-23T03:25:18.077Z,18.82
2018-12-23T03:26:17.780Z,18.82
2018-12-23T03:27:17.737Z,18.82
2018-12-23T03:28:17.805Z,18.81
2018-12-23T03:29:17.640Z,18.82
2018-12-23T03:30:17.471Z,18.81
2018-12-23T03:31:17.716Z,18.81
2018-12-23T03:32:17.922Z,18.81
2018-12-23T03:33:17.931Z,18.81
2018-12-23T03:34:17.872Z,18.8
2018-12-23T03:35:17.913Z,18.8
2018-12-23T03:36:17.857Z,18.8
2018-12-23T03:37:17.917Z,18.79
2018-12-23T03:38:17.869Z,18.79
2018-12-23T03:39:17.861Z,18.78
2018-12-23T03:40:17.822Z,18.78
2018-12-23T03:41:17.623Z,18.79
2018-12-23T03:42:17.607Z,18.78
2018-12-23T03:43:17.554Z,18.78
2018-12-23T03:44:17.769Z,18.78
2018-12-23T03:45:17.438Z,18.78
2018-12-23T03:46:18.006Z,18.77
2018-12-23T03:47:17.459Z,18.76
2018-12-23T03:48:17.698Z,18.77
2018-12-23T03:49:17.737Z,18.76
2018-12-23T03:50:18.160Z,18.76
2018-12-23T03:51:18.011Z,18.76
2018-12-23T03:52:18.079Z,18.76
2018-12-23T03:53:18.154Z,18.76
2018-12-23T03:54:18.436Z,18.76
2018-12-23T03:55:17.652Z,18.76
2018-12-23T03:56:17.889Z,18.75
2018-12-23T03:57:17.846Z,18.76
2018-12-23T03:58:17.850Z,18.75
2018-12-23T03:59:17.569Z,18.75
2018-12-23T04:00:17.828Z,18.75
2018-12-23T04:01:16.902Z,18.74
2018-12-23T04:02:17.825Z,18.74
2018-12-23T04:03:17.575Z,18.74
2018-12-23T04:04:18.014Z,18.74
2018-12-23T04:05:17.997Z,18.74
2018-12-23T04:06:24.379Z,18.75
2018-12-23T04:07:17.998Z,18.75
2018-12-23T04:08:17.698Z,18.74
2018-12-23T04:09:17.917Z,18.72
2018-12-23T04:10:18.176Z,18.73
2018-12-23T04:11:17.895Z,18.72
2018-12-23T04:12:17.845Z,18.73
2018-12-23T04:13:17.884Z,18.72
2018-12-23T04:14:17.609Z,18.73
2018-12-23T04:15:17.510Z,18.72
2018-12-23T04:16:17.746Z,18.72
2018-12-23T04:17:17.855Z,18.72
2018-12-23T04:18:17.687Z,18.71
2018-12-23T04:19:17.872Z,18.72
2018-12-23T04:20:17.807Z,18.71
2018-12-23T04:21:17.462Z,18.71
2018-12-23T04:22:18.074Z,18.71
2018-12-23T04:23:17.805Z,18.71
2018-12-23T04:24:18.020Z,18.7
2018-12-23T04:25:17.965Z,18.7
2018-12-23T04:26:17.693Z,18.7
2018-12-23T04:27:17.455Z,18.7
2018-12-23T04:28:17.966Z,18.69
2018-12-23T04:29:17.673Z,18.69
2018-12-23T04:30:17.937Z,18.69
2018-12-23T04:31:17.365Z,18.68
2018-12-23T04:32:17.640Z,18.68
2018-12-23T04:33:17.981Z,18.67
2018-12-23T04:34:17.593Z,18.67
2018-12-23T04:35:18.203Z,18.68
2018-12-23T04:36:17.663Z,18.68
2018-12-23T04:37:17.937Z,18.68
2018-12-23T04:38:18.428Z,18.66
2018-12-23T04:39:18.160Z,18.68
2018-12-23T04:40:18.106Z,18.69
2018-12-23T04:41:18.129Z,18.69
2018-12-23T04:42:18.163Z,18.68
2018-12-23T04:43:17.841Z,18.69
2018-12-23T04:44:17.864Z,18.69
2018-12-23T04:45:17.775Z,18.68
2018-12-23T04:46:17.779Z,18.69
2018-12-23T04:47:18.061Z,18.7
2018-12-23T04:48:17.990Z,18.7
2018-12-23T04:49:17.991Z,18.71
2018-12-23T04:50:17.747Z,18.71
2018-12-23T04:51:18.010Z,18.72
2018-12-23T04:52:17.786Z,18.72
2018-12-23T04:53:18.452Z,18.73
2018-12-23T04:54:17.357Z,18.73
2018-12-23T04:55:17.817Z,18.74
2018-12-23T04:56:18.161Z,18.74
2018-12-23T04:57:18.030Z,18.75
2018-12-23T04:58:17.857Z,18.76
2018-12-23T04:59:17.851Z,18.77
2018-12-23T05:00:18.100Z,18.78
2018-12-23T05:01:17.567Z,18.79
2018-12-23T05:02:18.297Z,18.81
2018-12-23T05:03:22.726Z,18.82
2018-12-23T05:04:17.756Z,18.83
2018-12-23T05:05:17.895Z,18.85
2018-12-23T05:06:18.080Z,18.87
2018-12-23T05:07:17.736Z,18.87
2018-12-23T05:08:17.686Z,18.88
2018-12-23T05:09:17.687Z,18.9
2018-12-23T05:10:17.654Z,18.93
2018-12-23T05:11:17.918Z,18.94
2018-12-23T05:12:17.892Z,18.96
2018-12-23T05:13:17.865Z,18.97
2018-12-23T05:14:17.912Z,18.99
2018-12-23T05:15:17.005Z,19
2018-12-23T05:16:17.917Z,19.01
2018-12-23T05:17:17.873Z,19.03
2018-12-23T05:18:17.866Z,19.05
2018-12-23T05:19:18.105Z,19.05
2018-12-23T05:20:17.571Z,19.07
2018-12-23T05:21:18.340Z,19.08
2018-12-23T05:22:17.874Z,19.09
2018-12-23T05:23:18.053Z,19.12
2018-12-23T05:24:17.749Z,19.12
2018-12-23T05:25:17.566Z,19.13
2018-12-23T05:26:17.791Z,19.15
2018-12-23T05:27:16.745Z,19.16
2018-12-23T05:28:17.525Z,19.17
2018-12-23T05:29:17.606Z,19.18
2018-12-23T05:30:17.950Z,19.18
2018-12-23T05:31:16.853Z,19.23
2018-12-23T05:32:18.072Z,19.22
2018-12-23T05:33:17.976Z,19.24
2018-12-23T05:34:17.747Z,19.25
2018-12-23T05:35:17.679Z,19.26
2018-12-23T05:36:17.964Z,19.26
2018-12-23T05:37:17.733Z,19.27
2018-12-23T05:38:17.897Z,19.28
2018-12-23T05:39:17.909Z,19.3
2018-12-23T05:40:18.119Z,19.3
2018-12-23T05:41:17.833Z,19.32
2018-12-23T05:42:17.851Z,19.33
2018-12-23T05:43:17.310Z,19.33
2018-12-23T05:44:18.125Z,19.35
2018-12-23T05:45:17.560Z,19.37
2018-12-23T05:46:17.772Z,19.37
2018-12-23T05:47:17.904Z,19.38
2018-12-23T05:48:17.774Z,19.39
2018-12-23T05:49:17.502Z,19.41
2018-12-23T05:50:17.495Z,19.41
2018-12-23T05:51:18.093Z,19.44
2018-12-23T05:52:17.701Z,19.45
2018-12-23T05:53:17.414Z,19.45
2018-12-23T05:54:17.660Z,19.46
2018-12-23T05:55:17.311Z,19.47
2018-12-23T05:56:17.911Z,19.48
2018-12-23T05:57:17.918Z,19.49
2018-12-23T05:58:18.105Z,19.49
2018-12-23T05:59:17.567Z,19.5
2018-12-23T06:00:18.071Z,19.51
2018-12-23T06:01:17.821Z,19.53
2018-12-23T06:02:17.822Z,19.54
2018-12-23T06:03:17.186Z,19.55
2018-12-23T06:04:17.815Z,19.55
2018-12-23T06:05:17.792Z,19.55
2018-12-23T06:06:17.794Z,19.56
2018-12-23T06:07:17.592Z,19.57
2018-12-23T06:08:17.775Z,19.57
2018-12-23T06:09:17.767Z,19.58
2018-12-23T06:10:17.500Z,19.59
2018-12-23T06:11:17.733Z,19.59
2018-12-23T06:12:17.843Z,19.6
2018-12-23T06:13:17.438Z,19.59
2018-12-23T06:14:17.885Z,19.61
2018-12-23T06:15:17.511Z,19.61
2018-12-23T06:16:17.697Z,19.61
2018-12-23T06:17:17.665Z,19.61
2018-12-23T06:18:18.127Z,19.62
2018-12-23T06:19:17.903Z,19.62
2018-12-23T06:20:17.628Z,19.63
2018-12-23T06:21:18.079Z,19.63
2018-12-23T06:22:18.106Z,19.63
2018-12-23T06:23:18.035Z,19.64
2018-12-23T06:24:17.526Z,19.63
2018-12-23T06:25:17.739Z,19.64
2018-12-23T06:26:17.901Z,19.64
2018-12-23T06:27:17.740Z,19.64
2018-12-23T06:28:17.998Z,19.64
2018-12-23T06:29:17.450Z,19.66
2018-12-23T06:30:17.700Z,19.65
2018-12-23T06:31:18.281Z,19.66
2018-12-23T06:32:17.467Z,19.65
2018-12-23T06:33:16.485Z,19.66
2018-12-23T06:34:17.632Z,19.66
2018-12-23T06:35:17.979Z,19.66
2018-12-23T06:36:17.701Z,19.66
2018-12-23T06:37:17.456Z,19.67
2018-12-23T06:38:17.550Z,19.67
2018-12-23T06:39:17.915Z,19.67
2018-12-23T06:40:17.910Z,19.67
2018-12-23T06:41:17.886Z,19.68
2018-12-23T06:42:17.856Z,19.68
2018-12-23T06:43:17.860Z,19.69
2018-12-23T06:44:17.350Z,19.68
2018-12-23T06:45:17.851Z,19.69
2018-12-23T06:46:17.443Z,19.7
2018-12-23T06:47:17.699Z,19.7
2018-12-23T06:48:18.038Z,19.71
2018-12-23T06:49:17.787Z,19.7
2018-12-23T06:50:17.523Z,19.71
2018-12-23T06:51:17.665Z,19.71
2018-12-23T06:52:17.737Z,19.72
2018-12-23T06:53:17.732Z,19.73
2018-12-23T06:54:17.818Z,19.72
2018-12-23T06:55:18.010Z,19.73
2018-12-23T06:56:17.721Z,19.74
2018-12-23T06:57:17.971Z,19.74
2018-12-23T06:58:17.427Z,19.74
2018-12-23T06:59:17.621Z,19.74
2018-12-23T07:00:17.653Z,19.76
2018-12-23T07:01:17.621Z,19.76
2018-12-23T07:02:17.855Z,19.77
2018-12-23T07:03:17.805Z,19.78
2018-12-23T07:04:18.108Z,19.79
2018-12-23T07:05:17.804Z,19.79
2018-12-23T07:06:17.816Z,19.8
2018-12-23T07:07:18.671Z,19.8
2018-12-23T07:08:17.741Z,19.8
2018-12-23T07:09:17.498Z,19.82
2018-12-23T07:10:17.640Z,19.82
2018-12-23T07:11:18.484Z,19.83
2018-12-23T07:12:17.726Z,19.83
2018-12-23T07:13:17.463Z,19.84
2018-12-23T07:14:17.710Z,19.84
2018-12-23T07:15:17.060Z,19.85
2018-12-23T07:16:17.714Z,19.85
2018-12-23T07:17:17.344Z,19.86
2018-12-23T07:18:17.661Z,19.87
2018-12-23T07:19:17.908Z,19.88
2018-12-23T07:20:17.238Z,19.88
2018-12-23T07:21:17.407Z,19.9
2018-12-23T07:22:17.486Z,19.9
2018-12-23T07:23:17.727Z,19.9
2018-12-23T07:24:17.792Z,19.92
2018-12-23T07:25:17.795Z,19.91
2018-12-23T07:26:17.526Z,19.93
2018-12-23T07:27:17.697Z,19.93
2018-12-23T07:28:17.701Z,19.93
2018-12-23T07:29:17.930Z,19.93
2018-12-23T07:30:17.454Z,19.94
2018-12-23T07:31:17.696Z,19.94
2018-12-23T07:32:17.437Z,19.96
2018-12-23T07:33:17.441Z,19.96
2018-12-23T07:34:17.659Z,19.96
2018-12-23T07:35:17.364Z,19.98
2018-12-23T07:36:17.603Z,20
2018-12-23T07:37:17.622Z,19.99
2018-12-23T07:38:16.814Z,20
2018-12-23T07:39:17.565Z,20
2018-12-23T07:40:17.606Z,20
2018-12-23T07:41:17.840Z,20
2018-12-23T07:42:17.840Z,20.01
2018-12-23T07:43:17.832Z,20.01
2018-12-23T07:44:17.789Z,20.02
2018-12-23T07:45:17.909Z,20.01
2018-12-23T07:46:17.769Z,20.01
2018-12-23T07:47:18.042Z,20.02
2018-12-23T07:48:17.499Z,20.02
2018-12-23T07:49:18.016Z,20.03
2018-12-23T07:50:17.736Z,20.03
2018-12-23T07:51:17.370Z,20.02
2018-12-23T07:52:18.005Z,20.03
2018-12-23T07:53:17.431Z,20.04
2018-12-23T07:54:17.929Z,20.04
2018-12-23T07:55:17.650Z,20.04
2018-12-23T07:56:17.652Z,20.04
2018-12-23T07:57:21.971Z,20.06
2018-12-23T07:58:17.768Z,20.06
2018-12-23T07:59:17.546Z,20.06
2018-12-23T08:00:17.553Z,20.06
2018-12-23T08:01:17.515Z,20.07
2018-12-23T08:02:17.753Z,20.07
2018-12-23T08:03:17.505Z,20.08
2018-12-23T08:04:17.529Z,20.08
2018-12-23T08:05:17.593Z,20.09
2018-12-23T08:06:18.348Z,20.09
2018-12-23T08:07:17.428Z,20.09
2018-12-23T08:08:17.943Z,20.1
2018-12-23T08:09:17.690Z,20.1
2018-12-23T08:10:17.638Z,20.09
2018-12-23T08:11:17.862Z,20.11
2018-12-23T08:12:17.389Z,20.11
2018-12-23T08:13:17.482Z,20.12
2018-12-23T08:14:17.847Z,20.12
2018-12-23T08:15:17.809Z,20.14
2018-12-23T08:16:17.507Z,20.14
2018-12-23T08:17:17.851Z,20.15
2018-12-23T08:18:17.849Z,20.15
2018-12-23T08:19:18.249Z,20.15
2018-12-23T08:20:17.778Z,20.15
2018-12-23T08:21:17.524Z,20.16
2018-12-23T08:22:17.745Z,20.16
2018-12-23T08:23:17.716Z,20.16
2018-12-23T08:24:17.467Z,20.16
2018-12-23T08:25:17.519Z,20.17
2018-12-23T08:26:17.712Z,20.18
2018-12-23T08:27:17.312Z,20.17
2018-12-23T08:28:17.394Z,20.17
2018-12-23T08:29:17.642Z,20.18
2018-12-23T08:30:17.739Z,20.17
2018-12-23T08:31:17.603Z,20.17
2018-12-23T08:32:17.405Z,20.18
2018-12-23T08:33:17.222Z,20.18
2018-12-23T08:34:17.281Z,20.19
2018-12-23T08:35:18.101Z,20.18
2018-12-23T08:36:17.829Z,20.19
2018-12-23T08:37:17.520Z,20.19
2018-12-23T08:38:17.469Z,20.19
2018-12-23T08:39:17.815Z,20.19
2018-12-23T08:40:17.461Z,20.19
2018-12-23T08:41:17.763Z,20.2
2018-12-23T08:42:17.765Z,20.2
2018-12-23T08:43:17.756Z,20.2
2018-12-23T08:44:17.701Z,20.19
2018-12-23T08:45:17.735Z,20.2
2018-12-23T08:46:17.339Z,20.2
2018-12-23T08:47:17.714Z,20.2
2018-12-23T08:48:17.472Z,20.21
2018-12-23T08:49:18.394Z,20.21
2018-12-23T08:50:22.486Z,20.22
2018-12-23T08:51:17.407Z,20.22
2018-12-23T08:52:17.886Z,20.22
2018-12-23T08:53:16.998Z,20.23
2018-12-23T08:54:17.669Z,20.23
2018-12-23T08:55:16.779Z,20.23
2018-12-23T08:56:17.649Z,20.23
2018-12-23T08:57:17.652Z,20.23
2018-12-23T08:58:17.881Z,20.24
2018-12-23T08:59:17.887Z,20.25
2018-12-23T09:00:17.377Z,20.26
2018-12-23T09:01:17.858Z,20.25
2018-12-23T09:02:17.607Z,20.26
2018-12-23T09:03:18.900Z,20.26
2018-12-23T09:04:17.557Z,20.26
2018-12-23T09:05:17.817Z,20.26
2018-12-23T09:06:18.559Z,20.27
2018-12-23T09:07:17.771Z,20.28
2018-12-23T09:08:17.548Z,20.27
2018-12-23T09:09:17.784Z,20.26
2018-12-23T09:10:17.532Z,20.27
2018-12-23T09:11:17.756Z,20.26
2018-12-23T09:12:17.552Z,20.27
2018-12-23T09:13:17.366Z,20.26
2018-12-23T09:14:17.985Z,20.26
2018-12-23T09:15:17.472Z,20.26
2018-12-23T09:16:18.184Z,20.25
2018-12-23T09:17:17.830Z,20.25
2018-12-23T09:18:19.377Z,20.25
2018-12-23T09:19:17.842Z,20.26
2018-12-23T09:20:18.402Z,20.25
2018-12-23T09:21:17.647Z,20.24
2018-12-23T09:22:19.697Z,20.24
2018-12-23T09:23:17.822Z,20.25
2018-12-23T09:24:17.833Z,20.24
2018-12-23T09:25:17.561Z,20.24
2018-12-23T09:26:18.833Z,20.24
2018-12-23T09:27:18.788Z,20.24
2018-12-23T09:28:18.028Z,20.24
2018-12-23T09:29:17.760Z,20.25
2018-12-23T09:30:17.482Z,20.24
2018-12-23T09:31:17.735Z,20.24
2018-12-23T09:32:18.182Z,20.25
2018-12-23T09:33:17.751Z,20.25
2018-12-23T09:34:17.393Z,20.25
2018-12-23T09:35:18.416Z,20.25
2018-12-23T09:36:18.252Z,20.25
2018-12-23T09:37:17.879Z,20.25
2018-12-23T09:38:17.840Z,20.26
2018-12-23T09:39:18.309Z,20.24
2018-12-23T09:40:17.810Z,20.23
2018-12-23T09:41:16.669Z,20.23
2018-12-23T09:42:17.133Z,20.25
2018-12-23T09:43:17.485Z,20.25
2018-12-23T09:44:17.789Z,20.25
2018-12-23T09:45:17.569Z,20.27
2018-12-23T09:46:18.072Z,20.27
2018-12-23T09:47:17.950Z,20.28
2018-12-23T09:48:18.019Z,20.28
2018-12-23T09:49:17.806Z,20.29
2018-12-23T09:50:18.495Z,20.31
2018-12-23T09:51:17.459Z,20.31
2018-12-23T09:52:17.707Z,20.29
2018-12-23T09:53:17.709Z,20.3
2018-12-23T09:54:17.638Z,20.29
2018-12-23T09:55:17.408Z,20.31
2018-12-23T09:56:17.618Z,20.33
2018-12-23T09:57:17.600Z,20.34
2018-12-23T09:58:17.610Z,20.35
2018-12-23T09:59:17.552Z,20.35
2018-12-23T10:00:18.017Z,20.35
2018-12-23T10:01:17.798Z,20.36
2018-12-23T10:02:17.491Z,20.37
2018-12-23T10:03:17.721Z,20.38
2018-12-23T10:04:16.619Z,20.37
2018-12-23T10:05:17.515Z,20.38
2018-12-23T10:06:17.967Z,20.37
2018-12-23T10:07:17.757Z,20.34
2018-12-23T10:08:17.704Z,20.27
2018-12-23T10:09:17.465Z,20.11
2018-12-23T10:10:17.456Z,20
2018-12-23T10:11:17.413Z,19.92
2018-12-23T10:12:17.669Z,19.86
2018-12-23T10:13:17.663Z,19.84
2018-12-23T10:14:17.284Z,19.89
2018-12-23T10:15:17.854Z,19.93
2018-12-23T10:16:17.327Z,19.97
2018-12-23T10:17:17.594Z,20.01
2018-12-23T10:18:17.577Z,20.03
2018-12-23T10:19:17.579Z,20.04
2018-12-23T10:20:17.521Z,20.11
2018-12-23T10:21:17.489Z,20.14
2018-12-23T10:22:17.769Z,20.19
2018-12-23T10:23:17.459Z,20.19
2018-12-23T10:24:18.106Z,20.22
2018-12-23T10:25:17.674Z,20.27
2018-12-23T10:26:16.816Z,20.28
2018-12-23T10:27:17.998Z,20.3
2018-12-23T10:28:17.715Z,20.34
2018-12-23T10:29:17.662Z,20.34
2018-12-23T10:30:17.601Z,20.37
2018-12-23T10:31:17.876Z,20.38
2018-12-23T10:32:17.872Z,20.4
2018-12-23T10:33:17.865Z,20.42
2018-12-23T10:34:17.859Z,20.42
2018-12-23T10:35:17.730Z,20.41
2018-12-23T10:36:17.351Z,20.41
2018-12-23T10:37:17.591Z,20.42
2018-12-23T10:38:18.398Z,20.46
2018-12-23T10:39:17.551Z,20.46
2018-12-23T10:40:18.076Z,20.46
2018-12-23T10:41:17.674Z,20.5
2018-12-23T10:42:23.769Z,20.61
2018-12-23T10:43:23.207Z,20.67
2018-12-23T10:44:36.909Z,20.77
2018-12-23T10:45:35.531Z,20.78
2018-12-23T10:46:37.154Z,20.85
2018-12-23T10:47:36.610Z,20.88
2018-12-23T10:48:36.855Z,20.95
2018-12-23T10:49:37.595Z,20.96
2018-12-23T10:50:36.605Z,21
2018-12-23T10:51:21.434Z,21.03
2018-12-23T10:52:21.729Z,21.06
2018-12-23T10:53:40.600Z,21.11
2018-12-23T10:55:15.400Z,21.15
2018-12-23T10:56:15.411Z,21.19
2018-12-23T10:57:15.131Z,21.23
2018-12-23T10:58:14.912Z,21.27
2018-12-23T10:59:15.393Z,21.27
2018-12-23T11:00:15.657Z,21.3
2018-12-23T11:01:14.838Z,21.32
2018-12-23T11:02:15.150Z,21.35
2018-12-23T11:03:15.346Z,21.38
2018-12-23T11:04:15.151Z,21.4
2018-12-23T11:05:14.176Z,21.42
2018-12-23T11:06:15.168Z,21.44
2018-12-23T11:07:15.660Z,21.45
2018-12-23T11:26:48.749Z,21.76
2018-12-23T11:27:48.529Z,21.76
2018-12-23T11:28:48.525Z,21.78
2018-12-23T11:29:48.731Z,21.79
2018-12-23T11:30:48.515Z,21.8
2018-12-23T11:31:48.518Z,21.81
2018-12-23T11:32:48.675Z,21.82
2018-12-23T11:33:49.477Z,21.83
2018-12-23T11:34:48.711Z,21.83
2018-12-23T11:35:48.392Z,21.84
2018-12-23T11:36:48.899Z,21.84
2018-12-23T11:37:24.885Z,21.85
2018-12-23T11:38:25.354Z,21.85
2018-12-23T11:39:25.074Z,21.85
2018-12-23T11:40:24.824Z,21.86
2018-12-23T11:41:24.755Z,21.87
2018-12-23T11:42:24.983Z,21.86
2018-12-23T11:43:25.282Z,21.87
2018-12-23T11:51:53.200Z,21.85
2018-12-23T11:52:53.271Z,21.87
2018-12-23T11:53:53.468Z,21.88
2018-12-23T11:54:53.001Z,21.87
2018-12-23T11:55:53.287Z,21.9
2018-12-23T11:56:52.832Z,21.9
2018-12-23T11:57:53.321Z,21.92
2018-12-23T11:58:53.075Z,21.91
2018-12-23T11:59:53.576Z,21.94
2018-12-23T12:00:52.664Z,21.95
2018-12-23T12:02:16.126Z,21.95
2018-12-23T12:03:16.111Z,21.96
2018-12-23T12:04:16.120Z,21.95
2018-12-23T12:05:16.646Z,21.97
2018-12-23T12:06:16.170Z,21.98
2018-12-23T12:06:54.180Z,21.99
2018-12-23T12:07:54.165Z,22
2018-12-23T12:08:54.173Z,22
2018-12-23T12:09:54.146Z,22
2018-12-23T12:10:53.594Z,22.01
2018-12-23T12:11:54.149Z,22.01
2018-12-23T12:12:52.751Z,22.03
2018-12-23T12:13:53.849Z,21.97
2018-12-23T12:14:53.549Z,21.96
2018-12-23T12:15:54.216Z,21.95
2018-12-23T12:16:54.459Z,21.93
2018-12-23T12:17:59.100Z,21.93
2018-12-23T12:18:53.596Z,21.93
2018-12-23T12:19:54.191Z,21.92
2018-12-23T12:20:53.944Z,21.92
2018-12-23T12:21:53.807Z,21.91
2018-12-23T12:22:54.050Z,21.94
2018-12-23T12:23:53.285Z,21.95
2018-12-23T12:24:53.896Z,21.96
2018-12-23T12:25:54.158Z,21.97
2018-12-23T12:26:54.153Z,21.97
2018-12-23T12:27:54.201Z,21.99
2018-12-23T12:28:53.965Z,21.97
2018-12-23T12:29:54.008Z,22
2018-12-23T12:30:54.352Z,22.01
2018-12-23T12:31:54.262Z,22.01
2018-12-23T12:32:54.094Z,22.02
2018-12-23T12:33:54.398Z,22.01
2018-12-23T12:34:54.147Z,22.01
2018-12-23T12:35:54.158Z,22.01
2018-12-23T12:36:54.438Z,22
2018-12-23T12:37:54.299Z,22.01
2018-12-23T12:38:54.232Z,22.01
2018-12-23T12:39:53.730Z,21.98
2018-12-23T12:40:54.756Z,21.93
2018-12-23T12:41:54.283Z,21.9
2018-12-23T12:42:54.048Z,21.9
2018-12-23T12:43:53.837Z,21.88
2018-12-23T12:44:53.738Z,21.88
2018-12-23T12:46:00.440Z,21.88
2018-12-23T12:46:53.889Z,21.84
2018-12-23T12:47:54.382Z,21.85
2018-12-23T12:48:53.387Z,21.85
2018-12-23T12:49:53.982Z,21.86
2018-12-23T12:50:54.465Z,21.89
2018-12-23T12:51:54.262Z,21.9
2018-12-23T12:52:53.994Z,21.92
2018-12-23T12:53:53.767Z,21.93
2018-12-23T12:54:54.016Z,21.94
2018-12-23T12:55:54.057Z,21.96
2018-12-23T12:56:54.064Z,21.89
2018-12-23T12:57:54.353Z,21.88
2018-12-23T12:58:53.707Z,21.85
2018-12-23T12:59:53.619Z,21.86
2018-12-23T13:00:54.153Z,21.85
2018-12-23T13:01:53.929Z,21.84
2018-12-23T13:02:54.451Z,21.84
2018-12-23T13:03:54.487Z,21.83
2018-12-23T13:04:54.233Z,21.8
2018-12-23T13:05:54.245Z,21.85
2018-12-23T13:06:54.757Z,21.88
2018-12-23T13:07:54.273Z,21.9
2018-12-23T13:09:00.403Z,21.91
2018-12-23T13:09:53.307Z,21.93
2018-12-23T13:10:53.634Z,21.95
2018-12-23T13:11:54.077Z,21.98
2018-12-23T13:12:54.157Z,22.01
2018-12-23T13:13:53.504Z,21.94
2018-12-23T13:14:46.792Z,21.93
2018-12-23T13:15:46.759Z,21.92
2018-12-23T13:16:45.969Z,21.92
2018-12-23T13:17:46.365Z,21.89
2018-12-23T13:18:46.815Z,21.89
2018-12-23T13:19:47.021Z,21.88
2018-12-23T13:20:47.089Z,21.87
2018-12-23T13:21:46.781Z,21.86
2018-12-23T13:22:46.485Z,21.86